Terminal Aerodrome Forecast
Issued by NWS

Home | Current Version | Previous Version | Text Only | Print | Product List | Glossary On
Versions: 1 2 3 4 5 6 7 8 9 10 11 12 13 14 15 16 17 18 19
946
FTUS43 KDLH 031141
TAFHIB
TAF
KHIB 031141Z 0312/0412 35012KT P6SM SCT060 OVC080
     FM031400 34015G20KT P6SM SCT100
     FM032200 33013KT P6SM FEW150
     FM040500 30004KT P6SM VCSH BKN035 OVC060
     FM040800 00000KT 5SM -SN SCT015 OVC025=

USA.gov is the U.S. government's official web portal to all federal, state and local government web resources and services.